sensor_id;sensor_type;location;lat;lon;timestamp;P1;durP1;ratioP1;P2;durP2;ratioP2
36689;SDS011;22676;51.120;3.702;2024-01-06T00:01:38;3.65;;;0.70;;
36689;SDS011;22676;51.120;3.702;2024-01-06T00:04:03;5.47;;;1.00;;
36689;SDS011;22676;51.120;3.702;2024-01-06T00:06:29;1.65;;;0.60;;
36689;SDS011;22676;51.120;3.702;2024-01-06T00:08:55;3.83;;;0.93;;
36689;SDS011;22676;51.120;3.702;2024-01-06T00:11:21;3.60;;;0.93;;
36689;SDS011;22676;51.120;3.702;2024-01-06T00:13:47;1.35;;;0.80;;
36689;SDS011;22676;51.120;3.702;2024-01-06T00:16:12;2.53;;;0.65;;
36689;SDS011;22676;51.120;3.702;2024-01-06T00:18:41;1.95;;;0.70;;
36689;SDS011;22676;51.120;3.702;2024-01-06T00:21:07;4.60;;;0.75;;
36689;SDS011;22676;51.120;3.702;2024-01-06T00:23:33;3.25;;;0.90;;
36689;SDS011;22676;51.120;3.702;2024-01-06T00:25:59;4.25;;;0.90;;
36689;SDS011;22676;51.120;3.702;2024-01-06T00:28:24;2.00;;;0.68;;
36689;SDS011;22676;51.120;3.702;2024-01-06T00:30:50;2.25;;;0.60;;
36689;SDS011;22676;51.120;3.702;2024-01-06T00:33:16;2.08;;;0.70;;
36689;SDS011;22676;51.120;3.702;2024-01-06T00:35:42;3.58;;;0.90;;
36689;SDS011;22676;51.120;3.702;2024-01-06T00:38:08;0.95;;;0.60;;
36689;SDS011;22676;51.120;3.702;2024-01-06T00:40:33;6.50;;;0.80;;
36689;SDS011;22676;51.120;3.702;2024-01-06T00:42:59;1.83;;;0.80;;
36689;SDS011;22676;51.120;3.702;2024-01-06T00:45:25;1.98;;;0.80;;
36689;SDS011;22676;51.120;3.702;2024-01-06T00:47:50;1.85;;;0.70;;
36689;SDS011;22676;51.120;3.702;2024-01-06T00:50:17;3.10;;;0.70;;
36689;SDS011;22676;51.120;3.702;2024-01-06T00:52:44;1.58;;;0.70;;
36689;SDS011;22676;51.120;3.702;2024-01-06T00:55:10;3.38;;;0.93;;
36689;SDS011;22676;51.120;3.702;2024-01-06T00:57:36;2.78;;;0.60;;
36689;SDS011;22676;51.120;3.702;2024-01-06T01:00:02;1.70;;;0.70;;
36689;SDS011;22676;51.120;3.702;2024-01-06T01:02:29;1.88;;;0.60;;
36689;SDS011;22676;51.120;3.702;2024-01-06T01:04:54;2.38;;;0.70;;
36689;SDS011;22676;51.120;3.702;2024-01-06T01:07:20;1.67;;;0.65;;
36689;SDS011;22676;51.120;3.702;2024-01-06T01:09:46;1.42;;;0.50;;
36689;SDS011;22676;51.120;3.702;2024-01-06T01:12:11;2.33;;;0.73;;
36689;SDS011;22676;51.120;3.702;2024-01-06T01:14:37;6.05;;;0.60;;
36689;SDS011;22676;51.120;3.702;2024-01-06T01:17:02;2.15;;;0.47;;
36689;SDS011;22676;51.120;3.702;2024-01-06T01:19:29;3.80;;;0.70;;
36689;SDS011;22676;51.120;3.702;2024-01-06T01:21:54;2.15;;;0.77;;
36689;SDS011;22676;51.120;3.702;2024-01-06T01:24:21;0.82;;;0.47;;
36689;SDS011;22676;51.120;3.702;2024-01-06T01:26:47;1.52;;;0.75;;
36689;SDS011;22676;51.120;3.702;2024-01-06T01:29:13;1.25;;;0.40;;
36689;SDS011;22676;51.120;3.702;2024-01-06T01:31:38;3.58;;;0.63;;
36689;SDS011;22676;51.120;3.702;2024-01-06T01:34:04;1.45;;;0.57;;
36689;SDS011;22676;51.120;3.702;2024-01-06T01:36:30;1.15;;;0.63;;
36689;SDS011;22676;51.120;3.702;2024-01-06T01:38:55;1.48;;;0.50;;
36689;SDS011;22676;51.120;3.702;2024-01-06T01:41:21;2.63;;;0.63;;
36689;SDS011;22676;51.120;3.702;2024-01-06T01:43:46;0.77;;;0.40;;
36689;SDS011;22676;51.120;3.702;2024-01-06T01:46:12;1.10;;;0.57;;
36689;SDS011;22676;51.120;3.702;2024-01-06T01:48:38;1.08;;;0.45;;
36689;SDS011;22676;51.120;3.702;2024-01-06T01:51:04;1.30;;;0.57;;
36689;SDS011;22676;51.120;3.702;2024-01-06T01:53:31;1.13;;;0.40;;
36689;SDS011;22676;51.120;3.702;2024-01-06T01:55:57;0.80;;;0.40;;
36689;SDS011;22676;51.120;3.702;2024-01-06T01:58:23;2.72;;;0.50;;
36689;SDS011;22676;51.120;3.702;2024-01-06T02:00:49;1.42;;;0.50;;
36689;SDS011;22676;51.120;3.702;2024-01-06T02:03:15;0.52;;;0.45;;
36689;SDS011;22676;51.120;3.702;2024-01-06T02:05:41;1.45;;;0.60;;
36689;SDS011;22676;51.120;3.702;2024-01-06T02:08:07;1.25;;;0.60;;
36689;SDS011;22676;51.120;3.702;2024-01-06T02:10:33;1.85;;;0.50;;
36689;SDS011;22676;51.120;3.702;2024-01-06T02:13:09;0.32;;;0.32;;
36689;SDS011;22676;51.120;3.702;2024-01-06T02:15:35;1.00;;;0.50;;
36689;SDS011;22676;51.120;3.702;2024-01-06T02:18:02;0.93;;;0.60;;
36689;SDS011;22676;51.120;3.702;2024-01-06T02:20:28;1.00;;;0.43;;
36689;SDS011;22676;51.120;3.702;2024-01-06T02:22:56;0.77;;;0.52;;
36689;SDS011;22676;51.120;3.702;2024-01-06T02:25:23;0.95;;;0.45;;
36689;SDS011;22676;51.120;3.702;2024-01-06T02:27:49;2.78;;;0.38;;
36689;SDS011;22676;51.120;3.702;2024-01-06T02:30:15;1.15;;;0.57;;
36689;SDS011;22676;51.120;3.702;2024-01-06T02:32:40;0.82;;;0.40;;
36689;SDS011;22676;51.120;3.702;2024-01-06T02:35:06;1.08;;;0.52;;
36689;SDS011;22676;51.120;3.702;2024-01-06T02:37:32;1.45;;;0.55;;
36689;SDS011;22676;51.120;3.702;2024-01-06T02:39:58;1.02;;;0.50;;
36689;SDS011;22676;51.120;3.702;2024-01-06T02:42:23;1.42;;;0.60;;
36689;SDS011;22676;51.120;3.702;2024-01-06T02:44:50;0.70;;;0.50;;
36689;SDS011;22676;51.120;3.702;2024-01-06T02:47:16;1.92;;;0.65;;
36689;SDS011;22676;51.120;3.702;2024-01-06T02:49:41;1.60;;;0.40;;
36689;SDS011;22676;51.120;3.702;2024-01-06T02:52:07;0.60;;;0.50;;
36689;SDS011;22676;51.120;3.702;2024-01-06T02:54:32;1.38;;;0.57;;
36689;SDS011;22676;51.120;3.702;2024-01-06T02:56:58;0.70;;;0.50;;
36689;SDS011;22676;51.120;3.702;2024-01-06T02:59:24;2.38;;;0.70;;
36689;SDS011;22676;51.120;3.702;2024-01-06T03:01:49;0.75;;;0.40;;
36689;SDS011;22676;51.120;3.702;2024-01-06T03:04:16;0.80;;;0.40;;
36689;SDS011;22676;51.120;3.702;2024-01-06T03:06:41;0.60;;;0.50;;
36689;SDS011;22676;51.120;3.702;2024-01-06T03:09:07;0.30;;;0.30;;
36689;SDS011;22676;51.120;3.702;2024-01-06T03:11:32;1.30;;;0.47;;
36689;SDS011;22676;51.120;3.702;2024-01-06T03:13:58;4.10;;;0.50;;
36689;SDS011;22676;51.120;3.702;2024-01-06T03:16:24;0.35;;;0.25;;
36689;SDS011;22676;51.120;3.702;2024-01-06T03:18:49;0.85;;;0.50;;
36689;SDS011;22676;51.120;3.702;2024-01-06T03:21:18;0.52;;;0.40;;
36689;SDS011;22676;51.120;3.702;2024-01-06T03:23:45;1.10;;;0.47;;
36689;SDS011;22676;51.120;3.702;2024-01-06T03:26:11;0.88;;;0.40;;
36689;SDS011;22676;51.120;3.702;2024-01-06T03:28:37;0.60;;;0.35;;
36689;SDS011;22676;51.120;3.702;2024-01-06T03:31:03;0.30;;;0.30;;
36689;SDS011;22676;51.120;3.702;2024-01-06T03:33:28;0.30;;;0.30;;
36689;SDS011;22676;51.120;3.702;2024-01-06T03:35:54;0.40;;;0.40;;
36689;SDS011;22676;51.120;3.702;2024-01-06T03:38:19;0.30;;;0.30;;
36689;SDS011;22676;51.120;3.702;2024-01-06T03:40:45;0.43;;;0.40;;
36689;SDS011;22676;51.120;3.702;2024-01-06T03:43:10;0.60;;;0.40;;
36689;SDS011;22676;51.120;3.702;2024-01-06T03:45:36;0.60;;;0.38;;
36689;SDS011;22676;51.120;3.702;2024-01-06T03:48:02;0.40;;;0.25;;
36689;SDS011;22676;51.120;3.702;2024-01-06T03:50:28;0.82;;;0.50;;
36689;SDS011;22676;51.120;3.702;2024-01-06T03:52:53;1.30;;;0.38;;
36689;SDS011;22676;51.120;3.702;2024-01-06T03:55:19;0.40;;;0.30;;
36689;SDS011;22676;51.120;3.702;2024-01-06T03:57:44;0.40;;;0.32;;
36689;SDS011;22676;51.120;3.702;2024-01-06T04:00:10;0.75;;;0.38;;
36689;SDS011;22676;51.120;3.702;2024-01-06T04:02:36;0.30;;;0.30;;
36689;SDS011;22676;51.120;3.702;2024-01-06T04:05:01;0.77;;;0.30;;
36689;SDS011;22676;51.120;3.702;2024-01-06T04:07:30;0.40;;;0.38;;
36689;SDS011;22676;51.120;3.702;2024-01-06T04:09:55;1.33;;;0.30;;
36689;SDS011;22676;51.120;3.702;2024-01-06T04:12:21;0.80;;;0.30;;
36689;SDS011;22676;51.120;3.702;2024-01-06T04:14:47;0.40;;;0.20;;
36689;SDS011;22676;51.120;3.702;2024-01-06T04:17:12;0.50;;;0.30;;
36689;SDS011;22676;51.120;3.702;2024-01-06T04:19:38;0.80;;;0.40;;
36689;SDS011;22676;51.120;3.702;2024-01-06T04:22:04;0.43;;;0.30;;
36689;SDS011;22676;51.120;3.702;2024-01-06T04:24:29;2.05;;;1.02;;
36689;SDS011;22676;51.120;3.702;2024-01-06T04:26:55;1.77;;;0.50;;
36689;SDS011;22676;51.120;3.702;2024-01-06T04:29:21;0.52;;;0.38;;
36689;SDS011;22676;51.120;3.702;2024-01-06T04:31:46;0.70;;;0.30;;
36689;SDS011;22676;51.120;3.702;2024-01-06T04:34:12;0.43;;;0.30;;
36689;SDS011;22676;51.120;3.702;2024-01-06T04:36:37;0.40;;;0.40;;
36689;SDS011;22676;51.120;3.702;2024-01-06T04:39:03;0.40;;;0.30;;
36689;SDS011;22676;51.120;3.702;2024-01-06T04:41:29;0.60;;;0.38;;
36689;SDS011;22676;51.120;3.702;2024-01-06T04:43:54;0.73;;;0.40;;
36689;SDS011;22676;51.120;3.702;2024-01-06T04:46:20;0.30;;;0.30;;
36689;SDS011;22676;51.120;3.702;2024-01-06T04:48:47;3.95;;;0.52;;
36689;SDS011;22676;51.120;3.702;2024-01-06T04:51:12;0.50;;;0.40;;
36689;SDS011;22676;51.120;3.702;2024-01-06T04:53:39;0.90;;;0.40;;
36689;SDS011;22676;51.120;3.702;2024-01-06T04:56:05;0.98;;;0.40;;
36689;SDS011;22676;51.120;3.702;2024-01-06T04:58:30;0.85;;;0.50;;
36689;SDS011;22676;51.120;3.702;2024-01-06T05:00:56;0.35;;;0.30;;
36689;SDS011;22676;51.120;3.702;2024-01-06T05:03:22;0.32;;;0.32;;
36689;SDS011;22676;51.120;3.702;2024-01-06T05:05:48;0.85;;;0.22;;
36689;SDS011;22676;51.120;3.702;2024-01-06T05:08:13;0.45;;;0.32;;
36689;SDS011;22676;51.120;3.702;2024-01-06T05:10:39;0.60;;;0.30;;
36689;SDS011;22676;51.120;3.702;2024-01-06T05:13:04;0.30;;;0.30;;
36689;SDS011;22676;51.120;3.702;2024-01-06T05:15:30;0.47;;;0.20;;
36689;SDS011;22676;51.120;3.702;2024-01-06T05:17:56;0.73;;;0.38;;
36689;SDS011;22676;51.120;3.702;2024-01-06T05:20:22;0.60;;;0.30;;
36689;SDS011;22676;51.120;3.702;2024-01-06T05:22:48;1.33;;;0.52;;
36689;SDS011;22676;51.120;3.702;2024-01-06T05:25:13;0.57;;;0.43;;
36689;SDS011;22676;51.120;3.702;2024-01-06T05:27:39;0.88;;;0.50;;
36689;SDS011;22676;51.120;3.702;2024-01-06T05:30:05;0.40;;;0.30;;
36689;SDS011;22676;51.120;3.702;2024-01-06T05:32:31;0.47;;;0.40;;
36689;SDS011;22676;51.120;3.702;2024-01-06T05:34:56;0.30;;;0.30;;
36689;SDS011;22676;51.120;3.702;2024-01-06T05:37:22;0.30;;;0.30;;
36689;SDS011;22676;51.120;3.702;2024-01-06T05:39:48;0.30;;;0.30;;
36689;SDS011;22676;51.120;3.702;2024-01-06T05:42:13;0.30;;;0.30;;
36689;SDS011;22676;51.120;3.702;2024-01-06T05:44:42;0.55;;;0.38;;
36689;SDS011;22676;51.120;3.702;2024-01-06T05:47:07;0.52;;;0.43;;
36689;SDS011;22676;51.120;3.702;2024-01-06T05:49:33;1.13;;;0.40;;
36689;SDS011;22676;51.120;3.702;2024-01-06T05:51:59;0.30;;;0.30;;
36689;SDS011;22676;51.120;3.702;2024-01-06T05:54:25;0.95;;;0.40;;
36689;SDS011;22676;51.120;3.702;2024-01-06T05:56:50;0.65;;;0.45;;
36689;SDS011;22676;51.120;3.702;2024-01-06T05:59:16;0.30;;;0.30;;
36689;SDS011;22676;51.120;3.702;2024-01-06T06:01:42;0.30;;;0.30;;
36689;SDS011;22676;51.120;3.702;2024-01-06T06:04:08;0.43;;;0.38;;
36689;SDS011;22676;51.120;3.702;2024-01-06T06:06:35;0.68;;;0.30;;
36689;SDS011;22676;51.120;3.702;2024-01-06T06:09:00;0.30;;;0.30;;
36689;SDS011;22676;51.120;3.702;2024-01-06T06:11:26;0.55;;;0.40;;
36689;SDS011;22676;51.120;3.702;2024-01-06T06:13:52;0.30;;;0.30;;
36689;SDS011;22676;51.120;3.702;2024-01-06T06:16:17;0.90;;;0.25;;
36689;SDS011;22676;51.120;3.702;2024-01-06T06:18:43;0.50;;;0.40;;
36689;SDS011;22676;51.120;3.702;2024-01-06T06:21:09;1.27;;;0.40;;
36689;SDS011;22676;51.120;3.702;2024-01-06T06:23:34;0.80;;;0.40;;
36689;SDS011;22676;51.120;3.702;2024-01-06T06:26:06;0.40;;;0.30;;
36689;SDS011;22676;51.120;3.702;2024-01-06T06:28:33;0.50;;;0.40;;
36689;SDS011;22676;51.120;3.702;2024-01-06T06:30:59;0.52;;;0.40;;
36689;SDS011;22676;51.120;3.702;2024-01-06T06:33:25;0.40;;;0.30;;
36689;SDS011;22676;51.120;3.702;2024-01-06T06:35:51;0.47;;;0.30;;
36689;SDS011;22676;51.120;3.702;2024-01-06T06:38:16;0.28;;;0.22;;
36689;SDS011;22676;51.120;3.702;2024-01-06T06:40:42;0.30;;;0.30;;
36689;SDS011;22676;51.120;3.702;2024-01-06T06:43:07;0.40;;;0.40;;
36689;SDS011;22676;51.120;3.702;2024-01-06T06:45:34;1.55;;;0.90;;
36689;SDS011;22676;51.120;3.702;2024-01-06T06:48:00;3.10;;;0.90;;
36689;SDS011;22676;51.120;3.702;2024-01-06T06:50:25;0.98;;;0.60;;
36689;SDS011;22676;51.120;3.702;2024-01-06T06:52:51;1.80;;;0.60;;
36689;SDS011;22676;51.120;3.702;2024-01-06T06:55:17;0.40;;;0.40;;
36689;SDS011;22676;51.120;3.702;2024-01-06T06:57:43;0.90;;;0.50;;
36689;SDS011;22676;51.120;3.702;2024-01-06T07:02:44;0.68;;;0.40;;
36689;SDS011;22676;51.120;3.702;2024-01-06T07:05:10;0.80;;;0.50;;
36689;SDS011;22676;51.120;3.702;2024-01-06T07:07:36;0.50;;;0.28;;
36689;SDS011;22676;51.120;3.702;2024-01-06T07:10:02;0.43;;;0.35;;
36689;SDS011;22676;51.120;3.702;2024-01-06T07:12:30;0.30;;;0.30;;
36689;SDS011;22676;51.120;3.702;2024-01-06T07:14:56;0.30;;;0.30;;
36689;SDS011;22676;51.120;3.702;2024-01-06T07:17:23;1.30;;;0.28;;
36689;SDS011;22676;51.120;3.702;2024-01-06T07:19:49;0.45;;;0.30;;
36689;SDS011;22676;51.120;3.702;2024-01-06T07:22:15;0.20;;;0.20;;
36689;SDS011;22676;51.120;3.702;2024-01-06T07:24:43;0.45;;;0.38;;
36689;SDS011;22676;51.120;3.702;2024-01-06T07:27:09;0.68;;;0.40;;
36689;SDS011;22676;51.120;3.702;2024-01-06T07:29:35;0.68;;;0.40;;
36689;SDS011;22676;51.120;3.702;2024-01-06T07:32:01;0.52;;;0.40;;
36689;SDS011;22676;51.120;3.702;2024-01-06T07:34:26;0.35;;;0.30;;
36689;SDS011;22676;51.120;3.702;2024-01-06T07:36:52;0.30;;;0.30;;
36689;SDS011;22676;51.120;3.702;2024-01-06T07:39:18;0.30;;;0.20;;
36689;SDS011;22676;51.120;3.702;2024-01-06T07:41:43;0.40;;;0.30;;
36689;SDS011;22676;51.120;3.702;2024-01-06T07:44:11;1.05;;;0.80;;
36689;SDS011;22676;51.120;3.702;2024-01-06T07:46:41;0.82;;;0.80;;
36689;SDS011;22676;51.120;3.702;2024-01-06T07:49:06;0.90;;;0.90;;
36689;SDS011;22676;51.120;3.702;2024-01-06T07:51:32;0.30;;;0.30;;
36689;SDS011;22676;51.120;3.702;2024-01-06T07:53:59;0.95;;;0.40;;
36689;SDS011;22676;51.120;3.702;2024-01-06T07:56:25;0.52;;;0.40;;
36689;SDS011;22676;51.120;3.702;2024-01-06T07:58:51;0.50;;;0.40;;
36689;SDS011;22676;51.120;3.702;2024-01-06T08:01:17;0.50;;;0.50;;
36689;SDS011;22676;51.120;3.702;2024-01-06T08:03:43;0.38;;;0.35;;
36689;SDS011;22676;51.120;3.702;2024-01-06T08:06:09;0.82;;;0.40;;
36689;SDS011;22676;51.120;3.702;2024-01-06T08:08:35;0.82;;;0.43;;
36689;SDS011;22676;51.120;3.702;2024-01-06T08:11:00;0.75;;;0.30;;
36689;SDS011;22676;51.120;3.702;2024-01-06T08:13:26;1.30;;;0.57;;
36689;SDS011;22676;51.120;3.702;2024-01-06T08:15:52;2.83;;;0.50;;
36689;SDS011;22676;51.120;3.702;2024-01-06T08:18:18;0.98;;;0.57;;
36689;SDS011;22676;51.120;3.702;2024-01-06T08:20:43;1.30;;;0.40;;
36689;SDS011;22676;51.120;3.702;2024-01-06T08:23:09;0.57;;;0.40;;
36689;SDS011;22676;51.120;3.702;2024-01-06T08:25:35;1.00;;;0.68;;
36689;SDS011;22676;51.120;3.702;2024-01-06T08:28:01;1.65;;;0.50;;
36689;SDS011;22676;51.120;3.702;2024-01-06T08:30:26;1.70;;;0.45;;
36689;SDS011;22676;51.120;3.702;2024-01-06T08:32:52;0.85;;;0.50;;
36689;SDS011;22676;51.120;3.702;2024-01-06T08:35:18;0.65;;;0.40;;
36689;SDS011;22676;51.120;3.702;2024-01-06T08:37:44;1.20;;;0.50;;
36689;SDS011;22676;51.120;3.702;2024-01-06T08:40:11;0.60;;;0.40;;
36689;SDS011;22676;51.120;3.702;2024-01-06T08:42:37;0.82;;;0.40;;
36689;SDS011;22676;51.120;3.702;2024-01-06T08:45:03;1.45;;;0.60;;
36689;SDS011;22676;51.120;3.702;2024-01-06T08:47:30;3.03;;;0.63;;
36689;SDS011;22676;51.120;3.702;2024-01-06T08:49:55;0.50;;;0.40;;
36689;SDS011;22676;51.120;3.702;2024-01-06T08:52:21;0.73;;;0.38;;
36689;SDS011;22676;51.120;3.702;2024-01-06T08:54:47;0.30;;;0.30;;
36689;SDS011;22676;51.120;3.702;2024-01-06T08:57:14;0.40;;;0.28;;
36689;SDS011;22676;51.120;3.702;2024-01-06T08:59:40;0.88;;;0.50;;
36689;SDS011;22676;51.120;3.702;2024-01-06T09:02:05;0.75;;;0.50;;
36689;SDS011;22676;51.120;3.702;2024-01-06T09:04:31;0.38;;;0.30;;
36689;SDS011;22676;51.120;3.702;2024-01-06T09:06:57;0.45;;;0.38;;
36689;SDS011;22676;51.120;3.702;2024-01-06T09:09:22;0.88;;;0.60;;
36689;SDS011;22676;51.120;3.702;2024-01-06T09:11:48;0.50;;;0.50;;
36689;SDS011;22676;51.120;3.702;2024-01-06T09:14:14;0.52;;;0.38;;
36689;SDS011;22676;51.120;3.702;2024-01-06T09:16:41;0.80;;;0.50;;
36689;SDS011;22676;51.120;3.702;2024-01-06T09:19:07;0.50;;;0.40;;
36689;SDS011;22676;51.120;3.702;2024-01-06T09:21:33;1.27;;;0.50;;
36689;SDS011;22676;51.120;3.702;2024-01-06T09:23:58;0.93;;;0.40;;
36689;SDS011;22676;51.120;3.702;2024-01-06T09:26:25;0.88;;;0.50;;
36689;SDS011;22676;51.120;3.702;2024-01-06T09:28:51;4.10;;;0.60;;
36689;SDS011;22676;51.120;3.702;2024-01-06T09:31:16;3.35;;;0.43;;
36689;SDS011;22676;51.120;3.702;2024-01-06T09:33:42;0.43;;;0.40;;
36689;SDS011;22676;51.120;3.702;2024-01-06T09:36:08;2.03;;;0.57;;
36689;SDS011;22676;51.120;3.702;2024-01-06T09:38:36;1.75;;;0.40;;
36689;SDS011;22676;51.120;3.702;2024-01-06T09:41:02;1.30;;;0.70;;
36689;SDS011;22676;51.120;3.702;2024-01-06T09:43:28;0.40;;;0.40;;
36689;SDS011;22676;51.120;3.702;2024-01-06T09:46:02;1.48;;;0.60;;
36689;SDS011;22676;51.120;3.702;2024-01-06T09:48:35;10.52;;;0.65;;
36689;SDS011;22676;51.120;3.702;2024-01-06T09:51:06;1.08;;;0.52;;
36689;SDS011;22676;51.120;3.702;2024-01-06T09:53:36;3.10;;;0.77;;
36689;SDS011;22676;51.120;3.702;2024-01-06T09:56:13;0.60;;;0.50;;
36689;SDS011;22676;51.120;3.702;2024-01-06T09:58:41;1.05;;;0.50;;
36689;SDS011;22676;51.120;3.702;2024-01-06T10:01:07;4.20;;;0.50;;
36689;SDS011;22676;51.120;3.702;2024-01-06T10:03:35;1.02;;;0.40;;
36689;SDS011;22676;51.120;3.702;2024-01-06T10:06:01;0.50;;;0.50;;
36689;SDS011;22676;51.120;3.702;2024-01-06T10:08:29;1.75;;;0.60;;
36689;SDS011;22676;51.120;3.702;2024-01-06T10:10:55;0.75;;;0.45;;
36689;SDS011;22676;51.120;3.702;2024-01-06T10:13:21;1.55;;;0.60;;
36689;SDS011;22676;51.120;3.702;2024-01-06T10:22:52;1.65;;;0.50;;
36689;SDS011;22676;51.120;3.702;2024-01-06T10:25:18;0.82;;;0.45;;
36689;SDS011;22676;51.120;3.702;2024-01-06T10:27:44;2.25;;;0.50;;
36689;SDS011;22676;51.120;3.702;2024-01-06T10:30:10;4.75;;;0.70;;
36689;SDS011;22676;51.120;3.702;2024-01-06T10:32:36;0.70;;;0.50;;
36689;SDS011;22676;51.120;3.702;2024-01-06T10:35:02;0.90;;;0.35;;
36689;SDS011;22676;51.120;3.702;2024-01-06T10:37:30;4.15;;;0.60;;
36689;SDS011;22676;51.120;3.702;2024-01-06T10:40:12;1.05;;;0.43;;
36689;SDS011;22676;51.120;3.702;2024-01-06T10:42:39;4.32;;;0.65;;
36689;SDS011;22676;51.120;3.702;2024-01-06T10:45:06;1.55;;;0.70;;
36689;SDS011;22676;51.120;3.702;2024-01-06T10:47:34;2.75;;;0.80;;
36689;SDS011;22676;51.120;3.702;2024-01-06T10:50:01;0.90;;;0.40;;
36689;SDS011;22676;51.120;3.702;2024-01-06T10:52:29;0.85;;;0.50;;
36689;SDS011;22676;51.120;3.702;2024-01-06T10:54:56;0.70;;;0.60;;
36689;SDS011;22676;51.120;3.702;2024-01-06T10:57:23;1.15;;;0.60;;
36689;SDS011;22676;51.120;3.702;2024-01-06T10:59:49;3.13;;;0.65;;
36689;SDS011;22676;51.120;3.702;2024-01-06T11:02:16;3.92;;;1.13;;
36689;SDS011;22676;51.120;3.702;2024-01-06T11:04:45;11.10;;;1.52;;
36689;SDS011;22676;51.120;3.702;2024-01-06T11:07:16;22.13;;;1.52;;
36689;SDS011;22676;51.120;3.702;2024-01-06T11:09:46;7.20;;;1.63;;
36689;SDS011;22676;51.120;3.702;2024-01-06T11:12:23;13.95;;;1.85;;
36689;SDS011;22676;51.120;3.702;2024-01-06T11:14:51;10.80;;;1.60;;
36689;SDS011;22676;51.120;3.702;2024-01-06T11:20:20;8.30;;;1.27;;
36689;SDS011;22676;51.120;3.702;2024-01-06T11:22:47;13.70;;;1.55;;
36689;SDS011;22676;51.120;3.702;2024-01-06T11:25:13;3.88;;;1.02;;
36689;SDS011;22676;51.120;3.702;2024-01-06T11:27:49;5.78;;;1.42;;
36689;SDS011;22676;51.120;3.702;2024-01-06T11:30:22;6.65;;;1.50;;
36689;SDS011;22676;51.120;3.702;2024-01-06T11:32:50;5.82;;;1.30;;
36689;SDS011;22676;51.120;3.702;2024-01-06T11:35:18;11.65;;;1.17;;
36689;SDS011;22676;51.120;3.702;2024-01-06T11:43:02;8.52;;;2.10;;
36689;SDS011;22676;51.120;3.702;2024-01-06T11:45:37;6.45;;;1.25;;
36689;SDS011;22676;51.120;3.702;2024-01-06T11:48:08;14.25;;;1.15;;
36689;SDS011;22676;51.120;3.702;2024-01-06T11:50:35;10.00;;;0.90;;
36689;SDS011;22676;51.120;3.702;2024-01-06T11:53:03;7.93;;;1.40;;
36689;SDS011;22676;51.120;3.702;2024-01-06T11:55:30;11.93;;;1.33;;
36689;SDS011;22676;51.120;3.702;2024-01-06T11:57:59;13.40;;;1.67;;
36689;SDS011;22676;51.120;3.702;2024-01-06T12:00:28;13.38;;;1.08;;
36689;SDS011;22676;51.120;3.702;2024-01-06T12:03:00;13.48;;;1.67;;
36689;SDS011;22676;51.120;3.702;2024-01-06T12:05:26;10.18;;;1.33;;
36689;SDS011;22676;51.120;3.702;2024-01-06T12:08:02;5.07;;;1.23;;
36689;SDS011;22676;51.120;3.702;2024-01-06T12:10:32;7.55;;;1.63;;
36689;SDS011;22676;51.120;3.702;2024-01-06T12:12:59;6.93;;;3.40;;
36689;SDS011;22676;51.120;3.702;2024-01-06T12:15:26;10.63;;;6.10;;
36689;SDS011;22676;51.120;3.702;2024-01-06T12:17:52;25.13;;;10.88;;
36689;SDS011;22676;51.120;3.702;2024-01-06T12:20:18;20.63;;;12.23;;
36689;SDS011;22676;51.120;3.702;2024-01-06T12:22:44;21.55;;;12.02;;
36689;SDS011;22676;51.120;3.702;2024-01-06T12:25:10;25.58;;;13.15;;
36689;SDS011;22676;51.120;3.702;2024-01-06T12:27:35;20.25;;;11.60;;
36689;SDS011;22676;51.120;3.702;2024-01-06T12:30:01;19.83;;;11.60;;
36689;SDS011;22676;51.120;3.702;2024-01-06T12:32:28;18.70;;;10.15;;
36689;SDS011;22676;51.120;3.702;2024-01-06T12:34:53;16.02;;;9.85;;
36689;SDS011;22676;51.120;3.702;2024-01-06T12:37:22;12.25;;;8.73;;
36689;SDS011;22676;51.120;3.702;2024-01-06T12:39:48;15.10;;;9.38;;
36689;SDS011;22676;51.120;3.702;2024-01-06T12:42:15;17.33;;;9.70;;
36689;SDS011;22676;51.120;3.702;2024-01-06T12:44:41;17.10;;;9.65;;
36689;SDS011;22676;51.120;3.702;2024-01-06T12:47:07;16.52;;;9.77;;
36689;SDS011;22676;51.120;3.702;2024-01-06T12:49:33;15.40;;;8.52;;
36689;SDS011;22676;51.120;3.702;2024-01-06T12:51:59;13.30;;;7.55;;
36689;SDS011;22676;51.120;3.702;2024-01-06T12:54:25;10.98;;;8.35;;
36689;SDS011;22676;51.120;3.702;2024-01-06T12:56:50;12.40;;;6.53;;
36689;SDS011;22676;51.120;3.702;2024-01-06T12:59:16;9.68;;;6.32;;
36689;SDS011;22676;51.120;3.702;2024-01-06T13:01:42;12.38;;;6.03;;
36689;SDS011;22676;51.120;3.702;2024-01-06T13:04:08;7.63;;;5.55;;
36689;SDS011;22676;51.120;3.702;2024-01-06T13:06:34;8.10;;;5.10;;
36689;SDS011;22676;51.120;3.702;2024-01-06T13:08:59;8.25;;;5.22;;
36689;SDS011;22676;51.120;3.702;2024-01-06T13:11:29;9.07;;;4.80;;
36689;SDS011;22676;51.120;3.702;2024-01-06T13:13:55;6.93;;;4.35;;
36689;SDS011;22676;51.120;3.702;2024-01-06T13:16:20;8.38;;;4.40;;
36689;SDS011;22676;51.120;3.702;2024-01-06T13:18:46;5.18;;;3.65;;
36689;SDS011;22676;51.120;3.702;2024-01-06T13:21:12;5.28;;;3.67;;
36689;SDS011;22676;51.120;3.702;2024-01-06T13:23:37;5.88;;;3.30;;
36689;SDS011;22676;51.120;3.702;2024-01-06T13:26:03;4.60;;;3.00;;
36689;SDS011;22676;51.120;3.702;2024-01-06T13:28:28;3.70;;;2.80;;
36689;SDS011;22676;51.120;3.702;2024-01-06T13:30:54;4.05;;;2.70;;
36689;SDS011;22676;51.120;3.702;2024-01-06T13:33:20;5.40;;;2.97;;
36689;SDS011;22676;51.120;3.702;2024-01-06T13:35:45;6.18;;;2.67;;
36689;SDS011;22676;51.120;3.702;2024-01-06T13:38:11;4.03;;;2.40;;
36689;SDS011;22676;51.120;3.702;2024-01-06T13:40:37;3.15;;;2.22;;
36689;SDS011;22676;51.120;3.702;2024-01-06T13:43:02;5.10;;;2.72;;
36689;SDS011;22676;51.120;3.702;2024-01-06T13:45:30;2.95;;;1.90;;
36689;SDS011;22676;51.120;3.702;2024-01-06T13:47:56;2.90;;;2.03;;
36689;SDS011;22676;51.120;3.702;2024-01-06T13:50:21;3.40;;;1.90;;
36689;SDS011;22676;51.120;3.702;2024-01-06T13:52:47;3.05;;;1.98;;
36689;SDS011;22676;51.120;3.702;2024-01-06T13:55:13;2.67;;;1.80;;
36689;SDS011;22676;51.120;3.702;2024-01-06T13:57:39;4.32;;;1.77;;
36689;SDS011;22676;51.120;3.702;2024-01-06T14:00:09;2.80;;;1.70;;
36689;SDS011;22676;51.120;3.702;2024-01-06T14:02:36;3.15;;;1.75;;
36689;SDS011;22676;51.120;3.702;2024-01-06T14:05:03;3.28;;;1.85;;
36689;SDS011;22676;51.120;3.702;2024-01-06T14:07:29;2.95;;;1.60;;
36689;SDS011;22676;51.120;3.702;2024-01-06T14:09:55;2.45;;;1.52;;
36689;SDS011;22676;51.120;3.702;2024-01-06T14:12:21;2.40;;;1.50;;
36689;SDS011;22676;51.120;3.702;2024-01-06T14:14:47;3.08;;;1.63;;
36689;SDS011;22676;51.120;3.702;2024-01-06T14:17:12;3.42;;;1.38;;
36689;SDS011;22676;51.120;3.702;2024-01-06T14:19:38;2.25;;;1.73;;
36689;SDS011;22676;51.120;3.702;2024-01-06T14:22:04;2.70;;;1.70;;
36689;SDS011;22676;51.120;3.702;2024-01-06T14:24:30;3.65;;;1.70;;
36689;SDS011;22676;51.120;3.702;2024-01-06T14:26:56;1.55;;;1.30;;
36689;SDS011;22676;51.120;3.702;2024-01-06T14:29:22;1.85;;;1.30;;
36689;SDS011;22676;51.120;3.702;2024-01-06T14:31:48;4.30;;;1.42;;
36689;SDS011;22676;51.120;3.702;2024-01-06T14:34:13;3.40;;;1.50;;
36689;SDS011;22676;51.120;3.702;2024-01-06T14:36:39;6.50;;;1.42;;
36689;SDS011;22676;51.120;3.702;2024-01-06T14:39:12;3.53;;;1.50;;
36689;SDS011;22676;51.120;3.702;2024-01-06T14:41:41;6.63;;;1.70;;
36689;SDS011;22676;51.120;3.702;2024-01-06T14:44:07;4.53;;;1.30;;
36689;SDS011;22676;51.120;3.702;2024-01-06T14:46:33;3.53;;;1.10;;
36689;SDS011;22676;51.120;3.702;2024-01-06T14:49:00;5.22;;;1.35;;
36689;SDS011;22676;51.120;3.702;2024-01-06T14:51:28;5.28;;;1.38;;
36689;SDS011;22676;51.120;3.702;2024-01-06T14:53:53;4.30;;;1.50;;
36689;SDS011;22676;51.120;3.702;2024-01-06T14:56:20;2.05;;;1.23;;
36689;SDS011;22676;51.120;3.702;2024-01-06T14:58:46;1.38;;;1.08;;